Time;durP1;ratioP1;P1;durP2;ratioP2;P2;SDS_P1;SDS_P2;PMS_P1;PMS_P2;Temp;Humidity;BMP_temperature;BMP_pressure;BME280_temperature;BME280_humidity;BME280_pressure;Samples;Min_cycle;Max_cycle;Signal;HPM_P1;HPM_P2
2021/08/15 00:00:34;;;;;;;4.80;3.57;;;;;;;29.82;44.46;101204.20;128502;1084;64111;-86
2021/08/15 00:03:00;;;;;;;5.40;3.60;;;;;;;29.83;44.19;101205.03;128499;1084;64147;-86
2021/08/15 00:05:26;;;;;;;6.13;3.73;;;;;;;29.82;44.42;101204.20;128489;1084;64201;-86
2021/08/15 00:07:54;;;;;;;7.05;3.60;;;;;;;29.83;44.54;101199.59;128515;1084;64128;-87
2021/08/15 00:10:21;;;;;;;5.47;3.50;;;;;;;29.82;44.42;101201.47;128501;1083;64150;-87
2021/08/15 00:12:47;;;;;;;4.77;3.40;;;;;;;29.82;44.12;101198.75;128489;1084;64137;-86
2021/08/15 00:15:16;;;;;;;5.20;3.37;;;;;;;29.82;44.66;101197.88;128470;1084;64291;-86
2021/08/15 00:17:42;;;;;;;4.65;3.55;;;;;;;29.81;44.17;101202.48;128507;1082;64232;-86
2021/08/15 00:20:10;;;;;;;5.00;3.63;;;;;;;29.82;44.20;101192.44;128511;1084;63987;-86
2021/08/15 00:22:38;;;;;;;5.30;3.57;;;;;;;29.82;44.63;101200.59;128517;1082;64231;-86
2021/08/15 00:25:06;;;;;;;;;;;;;;;29.81;44.57;101198.92;128937;1083;64171;-86
2021/08/15 00:27:32;;;;;;;4.50;3.33;;;;;;;29.80;44.29;101197.20;128940;1082;64125;-86
2021/08/15 00:29:59;;;;;;;5.13;3.77;;;;;;;29.80;44.65;101191.76;128457;1084;64143;-85
2021/08/15 00:32:26;;;;;;;6.03;3.77;;;;;;;29.80;44.26;101194.48;128472;1084;64120;-85
2021/08/15 00:34:54;;;;;;;7.17;3.83;;;;;;;29.78;44.60;101186.48;128477;1082;63553;-86
2021/08/15 00:37:20;;;;;;;;;;;;;;;29.79;44.25;101190.05;128527;1084;64207;-86
2021/08/15 00:39:46;;;;;;;5.27;3.70;;;;;;;29.77;44.66;101190.20;128919;1084;64093;-87
2021/08/15 00:42:16;;;;;;;5.90;4.00;;;;;;;29.77;44.65;101187.48;128488;1084;64136;-86
2021/08/15 00:44:44;;;;;;;6.83;4.10;;;;;;;29.78;44.46;101182.88;128467;1084;64198;-86
2021/08/15 00:47:10;;;;;;;6.33;4.13;;;;;;;29.77;44.63;101176.60;128493;1084;64166;-86
2021/08/15 00:49:36;;;;;;;5.33;3.80;;;;;;;29.78;44.35;101177.44;128513;1083;64157;-85
2021/08/15 00:52:03;;;;;;;5.30;3.63;;;;;;;29.77;44.41;101173.88;128492;1084;64127;-86
2021/08/15 00:54:29;;;;;;;5.33;3.90;;;;;;;29.78;44.48;101174.72;128506;1082;64128;-85
2021/08/15 00:56:57;;;;;;;5.00;3.80;;;;;;;29.77;44.83;101168.44;128462;1084;64202;-85
2021/08/15 00:59:23;;;;;;;7.53;3.80;;;;;;;29.77;44.37;101176.60;128526;1083;64163;-86
2021/08/15 01:01:54;;;;;;;7.50;3.80;;;;;;;29.78;44.80;101167.43;128495;1083;64249;-86
2021/08/15 01:04:25;;;;;;;5.30;3.80;;;;;;;29.78;44.85;101177.44;128497;1084;64253;-85
2021/08/15 01:06:52;;;;;;;5.70;3.80;;;;;;;29.79;44.93;101179.16;128522;1084;63964;-85
2021/08/15 01:09:19;;;;;;;5.00;3.73;;;;;;;29.76;44.62;101178.48;128497;1082;64137;-87
2021/08/15 01:11:47;;;;;;;6.07;4.00;;;;;;;29.76;44.87;101178.48;128532;1084;64127;-86
2021/08/15 01:14:13;;;;;;;4.87;3.73;;;;;;;29.78;45.02;101180.16;128905;1084;64150;-86
2021/08/15 01:16:43;;;;;;;6.27;3.97;;;;;;;29.78;44.57;101174.72;128531;1082;64233;-86
2021/08/15 01:19:11;;;;;;;6.37;3.90;;;;;;;29.77;45.13;101171.16;128518;1084;64169;-85
2021/08/15 01:21:38;;;;;;;;;;;;;;;29.76;45.12;101164.00;128534;1084;64211;-86
2021/08/15 01:24:05;;;;;;;5.23;3.73;;;;;;;29.75;45.15;101163.16;128886;1084;64096;-86
2021/08/15 01:26:34;;;;;;;5.93;3.97;;;;;;;29.74;44.86;101169.61;128536;1084;64171;-86
2021/08/15 01:29:00;;;;;;;5.87;4.20;;;;;;;29.75;45.18;101170.45;128898;1084;64259;-86
2021/08/15 01:31:29;;;;;;;6.13;4.13;;;;;;;29.75;44.82;101162.28;128488;1082;64053;-86
2021/08/15 01:33:55;;;;;;;5.85;3.95;;;;;;;29.76;44.95;101166.72;128459;1084;64160;-86
2021/08/15 01:36:21;;;;;;;5.73;4.20;;;;;;;29.75;44.94;101162.28;128509;1084;64195;-85
2021/08/15 01:38:49;;;;;;;5.57;4.00;;;;;;;29.75;45.28;101165.88;128499;1084;64138;-86
2021/08/15 01:41:18;;;;;;;5.87;4.20;;;;;;;29.75;44.88;101168.60;128474;1084;64166;-85
2021/08/15 01:43:53;;;;;;;5.67;4.00;;;;;;;29.75;45.09;101165.01;128504;1084;64201;-86
2021/08/15 01:46:21;;;;;;;6.77;4.20;;;;;;;29.75;45.32;101165.01;128541;1082;64211;-85
2021/08/15 01:48:47;;;;;;;6.73;3.93;;;;;;;29.75;44.86;101168.60;128509;1084;64137;-85
2021/08/15 01:51:15;;;;;;;7.30;3.80;;;;;;;29.75;44.95;101176.77;128480;1084;64160;-86
2021/08/15 01:53:41;;;;;;;5.60;3.98;;;;;;;29.74;44.91;101166.89;128505;1084;64217;-85
2021/08/15 01:56:10;;;;;;;5.53;3.87;;;;;;;29.74;45.17;101175.05;128490;1084;64176;-86
2021/08/15 01:58:36;;;;;;;;;;;;;;;29.74;44.99;101168.77;128524;1084;64368;-86
2021/08/15 02:01:03;;;;;;;5.97;3.93;;;;;;;29.73;45.05;101172.49;128919;1084;64128;-86
2021/08/15 02:03:29;;;;;;;5.20;3.87;;;;;;;29.73;45.34;101172.49;128501;1082;64092;-86
2021/08/15 02:05:55;;;;;;;7.20;4.37;;;;;;;29.73;45.32;101173.33;128484;1083;64204;-86
2021/08/15 02:08:22;;;;;;;5.33;4.13;;;;;;;29.73;45.24;101167.89;128458;1082;64639;-86
2021/08/15 02:10:49;;;;;;;5.60;4.10;;;;;;;29.74;44.98;101176.93;128517;1084;64358;-86
2021/08/15 02:13:15;;;;;;;5.30;4.17;;;;;;;29.73;45.48;101164.33;128495;1084;64310;-86
2021/08/15 02:15:41;;;;;;;7.17;4.20;;;;;;;29.73;45.11;101167.89;128507;1084;64275;-85
2021/08/15 02:18:07;;;;;;;6.47;4.20;;;;;;;29.74;44.99;101171.48;128474;1084;64130;-86
2021/08/15 02:20:34;;;;;;;6.17;4.23;;;;;;;29.73;45.29;101172.49;128477;1082;64227;-85
2021/08/15 02:23:01;;;;;;;6.40;4.20;;;;;;;29.73;45.11;101167.89;128493;1084;64155;-85
2021/08/15 02:25:29;;;;;;;5.83;4.20;;;;;;;29.72;45.22;101171.62;128493;1084;64204;-86
2021/08/15 02:27:55;;;;;;;;;;;;;;;29.73;45.37;101172.49;128531;1084;64150;-85
2021/08/15 02:30:23;;;;;;;;;;;;;;;29.71;45.60;101175.38;128927;1084;64154;-86
2021/08/15 02:32:49;;;;;;;;;;;;;;;29.70;45.14;101167.38;128942;1084;64134;-86
2021/08/15 02:35:15;;;;;;;;;;;;;;;29.69;45.53;101166.50;128968;1082;64131;-85
2021/08/15 02:37:42;;;;;;;;;;;;;;;29.70;45.06;101175.54;128953;1084;64147;-85
2021/08/15 02:40:09;;;;;;;;;;;;;;;29.70;44.98;101173.66;128958;1084;61690;-85
2021/08/15 02:42:36;;;;;;;;;;;;;;;29.69;45.13;101174.66;129032;1084;64170;-85
2021/08/15 02:45:05;;;;;;;;;;;;;;;29.69;45.48;101171.94;129057;1084;64138;-85
2021/08/15 02:47:31;;;;;;;;;;;;;;;29.69;44.99;101171.94;128672;1084;63955;-86
2021/08/15 02:49:57;;;;;;;;;;;;;;;29.70;45.38;101173.66;129138;1084;64134;-85
2021/08/15 02:52:23;;;;;;;;;;;;;;;29.69;45.34;101177.38;128954;1084;64202;-86
2021/08/15 02:54:49;;;;;;;;;;;;;;;29.71;45.24;101177.22;128961;1082;64145;-86
2021/08/15 02:57:15;;;;;;;;;;;;;;;29.71;45.18;101179.94;128913;1084;64128;-86
2021/08/15 02:59:41;;;;;;;;;;;;;;;29.71;44.96;101174.50;128918;1084;64251;-86
2021/08/15 03:02:11;;;;;;;;;;;;;;;29.70;44.94;101178.26;128986;1084;64125;-86
2021/08/15 03:04:37;;;;;;;;;;;;;;;29.70;45.48;101179.10;128963;1084;64137;-85
2021/08/15 03:07:04;;;;;;;;;;;;;;;29.70;45.34;101180.98;128952;1084;64262;-86
2021/08/15 03:09:31;;;;;;;;;;;;;;;29.70;45.24;101184.54;128931;1084;64214;-86
2021/08/15 03:11:57;;;;;;;;;;;;;;;29.70;45.45;101183.70;128942;1083;63987;-86
2021/08/15 03:14:23;;;;;;;;;;;;;;;29.68;45.13;101181.11;128919;1084;61640;-86
2021/08/15 03:16:49;;;;;;;;;;;;;;;29.69;45.10;101181.98;128954;1083;64173;-85
2021/08/15 03:19:41;;;;;;;;;;;;;;;29.69;44.95;101179.27;128925;1084;64101;-85
2021/08/15 03:22:07;;;;;;;;;;;;;;;29.69;45.24;101179.27;128412;1086;64179;-85
2021/08/15 03:24:43;;;;;;;;;;;;;;;29.69;45.35;101179.27;128354;1087;64377;-86
2021/08/15 03:27:09;;;;;;;;;;;;;;;29.69;45.05;101187.42;128446;1087;64147;-86
2021/08/15 03:29:37;;;;;;;;;;;;;;;29.67;45.37;101182.14;128064;1087;64144;-86
2021/08/15 03:32:03;;;;;;;;;;;;;;;29.68;44.86;101183.83;128379;1087;64207;-87
2021/08/15 03:34:29;;;;;;;;;;;;;;;29.67;45.12;101184.87;128377;1087;64131;-85
2021/08/15 03:36:56;;;;;;;;;;;;;;;29.68;45.05;101191.16;128401;1087;64485;-86
2021/08/15 03:39:22;;;;;;;;;;;;;;;29.67;44.77;101178.55;128402;1086;63131;-85
2021/08/15 03:41:49;;;;;;;;;;;;;;;29.67;44.86;101184.87;128362;1087;64208;-86
2021/08/15 03:44:15;;;;;;;;;;;;;;;29.68;45.30;101177.55;128415;1087;64219;-85
2021/08/15 03:46:41;;;;;;;;;;;;;;;29.67;45.12;101184.87;128434;1087;64131;-86
2021/08/15 03:49:33;;;;;;;;;;;;;;;29.67;45.24;101179.42;128018;1087;64403;-86
2021/08/15 03:51:59;;;;;;;;;;;;;;;29.67;45.10;101182.14;127920;1087;64295;-86
2021/08/15 03:54:27;;;;;;;;;;;;;;;29.67;44.67;101184.87;127938;1087;64141;-86
2021/08/15 03:56:54;;;;;;;;;;;;;;;29.67;44.75;101181.27;127958;1090;64154;-86
2021/08/15 03:59:22;;;;;;;;;;;;;;;29.68;45.04;101180.27;128127;1087;64292;-86
2021/08/15 04:01:48;;;;;;;;;;;;;;;29.67;44.91;101181.27;128400;1086;64141;-86
2021/08/15 04:04:14;;;;;;;;;;;;;;;29.67;44.81;101184.87;128399;1087;64230;-86
2021/08/15 04:06:43;;;;;;;;;;;;;;;29.67;44.65;101173.98;128408;1087;64369;-85
2021/08/15 04:09:10;;;;;;;;;;;;;;;29.67;45.17;101168.55;128053;1087;65299;-85
2021/08/15 04:11:36;;;;;;;;;;;;;;;29.67;44.85;101178.55;128397;1087;64211;-85
2021/08/15 04:14:02;;;;;;;;;;;;;;;29.67;45.17;101176.70;128412;1087;64328;-87
2021/08/15 04:16:28;;;;;;;;;;;;;;;29.67;44.97;101173.11;128377;1087;64098;-87
2021/08/15 04:18:55;;;;;;;;;;;;;;;29.68;45.15;101180.27;128393;1087;64134;-85
2021/08/15 04:21:47;;;;;;;;;;;;;;;29.67;44.92;101181.27;128041;1087;64131;-85
2021/08/15 04:24:13;;;;;;;;;;;;;;;29.67;45.01;101192.16;127931;1087;64166;-86
2021/08/15 04:26:44;;;;;;;;;;;;;;;29.66;44.61;101185.88;127954;1087;64141;-86
2021/08/15 04:29:11;;;;;;;;;;;;;;;29.67;44.60;101181.27;128131;1087;64311;-86
2021/08/15 04:31:37;;;;;;;;;;;;;;;29.67;45.05;101187.59;128386;1087;64371;-86
2021/08/15 04:34:03;;;;;;;;;;;;;;;29.67;45.15;101182.14;128406;1085;64654;-86
2021/08/15 04:36:33;;;;;;;;;;;;;;;29.67;44.89;101187.59;128425;1087;64128;-86
2021/08/15 04:38:59;;;;;;;;;;;;;;;29.67;44.52;101190.31;128391;1087;64099;-86
2021/08/15 04:41:25;;;;;;;;;;;;;;;29.67;44.47;101195.75;128404;1087;64207;-86
2021/08/15 04:43:51;;;;;;;;;;;;;;;29.67;44.95;101193.03;128413;1087;64134;-86
2021/08/15 04:46:17;;;;;;;;;;;;;;;29.68;44.56;101185.71;128449;1087;64265;-86
2021/08/15 04:48:43;;;;;;;;;;;;;;;29.68;44.52;101185.71;128417;1087;64275;-86
2021/08/15 04:51:09;;;;;;;;;;;;;;;29.67;44.51;101182.14;128366;1087;64257;-86
2021/08/15 04:53:36;;;;;;;;;;;;;;;29.67;44.52;101186.72;128370;1087;64195;-86
2021/08/15 04:56:03;;;;;;;;;;;;;;;29.68;45.00;101182.98;128435;1086;64307;-86
2021/08/15 04:58:29;;;;;;;;;;;;;;;29.68;44.49;101180.27;128429;1085;64092;-86
2021/08/15 05:00:56;;;;;;;;;;;;;;;29.68;44.66;101185.71;128501;1087;61760;-85
2021/08/15 05:03:23;;;;;;;;;;;;;;;29.69;44.88;101176.55;128929;1084;64275;-86
2021/08/15 05:05:49;;;;;;;;;;;;;;;29.69;44.99;101179.27;128945;1084;64112;-86
2021/08/15 05:08:16;;;;;;;;;;;;;;;29.69;44.90;101187.42;128942;1084;64227;-87
2021/08/15 05:10:42;;;;;;;;;;;;;;;29.70;44.79;101186.42;128911;1082;64137;-87
2021/08/15 05:13:10;;;;;;;;;;;;;;;29.70;44.81;101180.98;128932;1084;65341;-86
2021/08/15 05:15:36;;;;;;;;;;;;;;;29.70;44.63;101183.70;128960;1084;64146;-86
2021/08/15 05:18:06;;;;;;;;;;;;;;;29.70;44.95;101189.98;128934;1083;64189;-85
2021/08/15 05:20:33;;;;;;;;;;;;;;;29.71;44.73;101194.42;128948;1084;64389;-85
2021/08/15 05:22:59;;;;;;;;;;;;;;;29.72;45.07;101187.10;128937;1082;64163;-85
2021/08/15 05:25:25;;;;;;;;;;;;;;;29.73;44.98;101188.81;128978;1084;64250;-86
2021/08/15 05:27:51;;;;;;;;;;;;;;;29.73;45.25;101188.81;128916;1084;64108;-86
2021/08/15 05:30:17;;;;;;;;;;;;;;;29.73;44.69;101186.94;128911;1084;64150;-86
2021/08/15 05:32:45;;;;;;;;;;;;;;;29.74;44.92;101188.66;128940;1084;64146;-86
2021/08/15 05:35:11;;;;;;;;;;;;;;;29.75;45.07;101187.65;128909;1084;64157;-86
2021/08/15 05:37:42;;;;;;;;;;;;;;;29.77;44.85;101190.20;128910;1082;64139;-86
2021/08/15 05:40:08;;;;;;;;;;;;;;;29.77;45.08;101190.20;128930;1084;64125;-85
2021/08/15 05:42:35;;;;;;;;;;;;;;;29.79;44.71;101192.77;128934;1082;64249;-85
2021/08/15 05:45:04;;;;;;;;;;;;;;;29.80;44.92;101189.88;128957;1084;64154;-85
2021/08/15 05:47:29;;;;;;;;;;;;;;;29.80;44.84;101187.16;128943;1084;64129;-85
2021/08/15 05:49:56;;;;;;;;;;;;;;;29.81;44.85;101188.88;128911;1084;64162;-86
2021/08/15 05:52:23;;;;;;;;;;;;;;;29.82;45.44;101187.00;128947;1083;64601;-85
2021/08/15 05:54:50;;;;;;;;;;;;;;;29.83;44.89;101183.27;128985;1082;64128;-86
2021/08/15 05:57:16;;;;;;;;;;;;;;;29.83;45.11;101186.86;128974;1082;64227;-86
2021/08/15 05:59:43;;;;;;;;;;;;;;;29.84;45.28;101193.15;128915;1084;64202;-86
2021/08/15 06:02:09;;;;;;;;;;;;;;;29.85;45.38;101187.54;128923;1084;64221;-86
2021/08/15 06:04:35;;;;;;;;;;;;;;;29.84;45.33;101183.11;128931;1084;64990;-86
2021/08/15 06:07:01;;;;;;;;;;;;;;;29.86;45.33;101181.13;128936;1084;64238;-86
2021/08/15 06:09:27;;;;;;;;;;;;;;;29.87;44.96;101185.56;128933;1084;64122;-85
2021/08/15 06:11:53;;;;;;;;;;;;;;;29.88;45.40;101180.96;128532;1084;64275;-87
2021/08/15 06:14:19;;;;;;;;;;;;;;;29.88;45.13;101179.08;128943;1084;64121;-85
2021/08/15 06:16:45;;;;;;;;;;;;;;;29.89;45.07;101174.52;129011;1084;64140;-86
2021/08/15 06:19:11;;;;;;;;;;;;;;;29.89;45.48;101179.95;128927;1084;64166;-85
2021/08/15 06:21:37;;;;;;;;;;;;;;;29.90;44.96;101173.51;128942;1084;64128;-86
2021/08/15 06:24:03;;;;;;;;;;;;;;;29.91;45.55;101183.36;128909;1082;64095;-85
2021/08/15 06:26:29;;;;;;;;;;;;;;;29.91;45.07;101181.50;128943;1082;64144;-86
2021/08/15 06:28:57;;;;;;;;;;;;;;;29.91;45.55;101162.45;128518;1084;64201;-86
2021/08/15 06:31:26;;;;;;;;;;;;;;;29.92;45.40;101176.91;128944;1084;64138;-85
2021/08/15 06:33:52;;;;;;;;;;;;;;;29.93;45.41;101165.86;128519;1084;64176;-86
2021/08/15 06:36:18;;;;;;;;;;;;;;;29.93;45.11;101163.13;128533;1083;64220;-86
2021/08/15 06:38:44;;;;;;;;;;;;;;;29.94;45.21;101169.45;128954;1083;64139;-86
2021/08/15 06:41:10;;;;;;;;;;;;;;;29.95;45.51;101162.97;128934;1082;64089;-85
2021/08/15 06:43:36;;;;;;;;;;;;;;;29.95;45.21;101167.56;128969;1083;64208;-85
2021/08/15 06:46:02;;;;;;;;;;;;;;;29.95;45.56;101165.69;129007;1084;64095;-85
2021/08/15 06:48:30;;;;;;;;;;;;;;;29.97;45.67;101165.55;129037;1084;64205;-84
2021/08/15 06:50:59;;;;;;;;;;;;;;;29.97;45.60;101160.95;129064;1084;63588;-85
2021/08/15 06:53:25;;;;;;;;;;;;;;;29.98;45.52;101162.67;129137;1084;64362;-85
2021/08/15 06:55:54;;;;;;;;;;;;;;;30.00;45.57;101170.67;129078;1084;64083;-85
2021/08/15 06:58:26;;;;;;;;;;;;;;;30.00;45.38;101173.39;128936;1084;64136;-85
2021/08/15 07:00:52;;;;;;;;;;;;;;;30.01;45.65;101172.39;128949;1084;64127;-86
2021/08/15 07:03:18;;;;;;;;;;;;;;;30.01;45.61;101173.22;128931;1084;64205;-86
2021/08/15 07:05:44;;;;;;;;;;;;;;;30.02;45.23;101171.34;128535;1084;64121;-86
2021/08/15 07:08:12;;;;;;;;;;;;;;;30.02;45.65;101172.22;128944;1083;64230;-86
2021/08/15 07:10:38;;;;;;;;;;;;;;;30.02;45.13;101172.22;128929;1084;64287;-86
2021/08/15 07:13:07;;;;;;;;;;;;;;;30.01;45.25;101175.95;128940;1084;65393;-87
2021/08/15 07:15:33;;;;;;;;;;;;;;;30.03;45.65;101175.78;128950;1083;64202;-85
2021/08/15 07:18:00;;;;;;;;;;;;;;;30.02;45.62;101168.63;128936;1083;63319;-85
2021/08/15 07:20:26;;;;;;;;;;;;;;;30.03;45.67;101170.34;128906;1084;64090;-85
2021/08/15 07:22:53;;;;;;;;;;;;;;;30.02;45.30;101171.34;128900;1084;63935;-85
2021/08/15 07:25:20;;;;;;;;;;;;;;;30.02;45.67;101168.63;128923;1084;64121;-86
2021/08/15 07:27:47;;;;;;;;;;;;;;;30.02;45.70;101177.66;128933;1083;64250;-85
2021/08/15 07:30:15;;;;;;;;;;;;;;;30.03;45.26;101171.21;128930;1084;64170;-86
2021/08/15 07:33:11;;;;;;;;;;;;;;;30.03;45.44;101173.06;128900;1082;65155;-86
2021/08/15 07:35:37;;;;;;;;;;;;;;;30.03;45.59;101167.62;128402;1087;64282;-85
2021/08/15 07:38:03;;;;;;;;;;;;;;;30.04;45.24;101169.33;128406;1087;64150;-85
2021/08/15 07:40:29;;;;;;;;;;;;;;;30.03;45.30;101162.17;128385;1086;64131;-85
2021/08/15 07:42:58;;;;;;;;;;;;;;;30.04;45.77;101158.45;128408;1087;64115;-86
2021/08/15 07:45:25;;;;;;;;;;;;;;;30.04;45.69;101158.45;128405;1087;64152;-85
2021/08/15 07:47:51;;;;;;;;;;;;;;;30.03;45.24;101157.60;128404;1087;64125;-86
2021/08/15 07:50:20;;;;;;;;;;;;;;;30.03;45.37;101163.05;128387;1087;64223;-86
2021/08/15 07:52:46;;;;;;;;;;;;;;;30.04;45.72;101161.16;128058;1086;64124;-86
2021/08/15 07:55:15;;;;;;;;;;;;;;;30.04;45.69;101153.00;128401;1087;64163;-85
2021/08/15 07:57:41;;;;;;;;;;;;;;;30.04;45.66;101153.00;128410;1087;64096;-87
2021/08/15 08:00:16;;;;;;;;;;;;;;;30.04;45.77;101153.00;128411;1086;64265;-86
2021/08/15 08:02:42;;;;;;;;;;;;;;;30.04;45.57;101159.28;128411;1087;64096;-86
2021/08/15 08:05:11;;;;;;;;;;;;;;;30.05;45.34;101162.88;128081;1087;63734;-86
2021/08/15 08:07:37;;;;;;;;;;;;;;;30.05;45.70;101160.16;128381;1087;65049;-86
2021/08/15 08:10:22;;;;;;;;;;;;;;;30.04;45.32;101147.55;128395;1086;64092;-85
2021/08/15 08:12:48;;;;;;;;;;;;;;;30.04;45.36;101150.28;128673;1084;64157;-86
2021/08/15 08:15:14;;;;;;;;;;;;;;;30.04;45.54;101145.67;128964;1084;64160;-86
2021/08/15 08:17:40;;;;;;;;;;;;;;;30.05;45.91;101143.83;128934;1084;64128;-85
2021/08/15 08:20:08;;;;;;;;;;;;;;;30.05;45.29;101143.83;128922;1084;64092;-86
2021/08/15 08:22:34;;;;;;;;;;;;;;;30.05;45.40;101141.11;128920;1084;64128;-87
2021/08/15 08:25:00;;;;;;;;;;;;;;;30.05;45.24;101135.66;128966;1084;64205;-86
2021/08/15 08:27:30;;;;;;;;;;;;;;;30.05;45.22;101136.50;128914;1084;64155;-87
2021/08/15 08:29:56;;;;;;;;;;;;;;;30.05;45.35;101136.50;128911;1084;64134;-86
2021/08/15 08:32:22;;;;;;;;;;;;;;;30.06;45.75;101129.17;128924;1084;64127;-86
2021/08/15 08:34:48;;;;;;;;;;;;;;;30.05;45.56;101124.77;128946;1083;64168;-86
2021/08/15 08:37:14;;;;;;;;;;;;;;;30.05;45.63;101130.22;128931;1084;61700;-86
2021/08/15 08:39:40;;;;;;;;;;;;;;;30.05;45.83;101124.77;128924;1084;64230;-86
2021/08/15 08:42:09;;;;;;;;;;;;;;;30.05;45.27;101122.05;128931;1084;64149;-86
2021/08/15 08:44:40;;;;;;;;;;;;;;;30.04;45.69;101126.63;128971;1084;64128;-86
2021/08/15 08:47:07;;;;;;;;;;;;;;;30.05;45.25;101130.22;128937;1082;64335;-87
2021/08/15 08:49:37;;;;;;;;;;;;;;;30.04;45.81;101129.34;128933;1084;64129;-85
2021/08/15 08:52:03;;;;;;;;;;;;;;;30.05;45.31;101122.89;128946;1082;64161;-85
2021/08/15 08:54:29;;;;;;;;;;;;;;;30.05;45.61;101122.89;128944;1084;64281;-85
2021/08/15 08:56:55;;;;;;;;;;;;;;;30.05;45.66;101122.05;128951;1083;64131;-86
2021/08/15 08:59:21;;;;;;;;;;;;;;;30.05;45.73;101125.61;128944;1084;64095;-86
2021/08/15 09:01:47;;;;;;;;;;;;;;;30.06;45.30;101121.01;128829;1084;64131;-85
2021/08/15 09:04:13;;;;;;;;;;;;;;;30.05;45.68;101128.33;128922;1082;64131;-86
2021/08/15 09:06:44;;;;;;;;;;;;;;;30.06;45.33;101123.73;128953;1083;64118;-85
2021/08/15 09:09:17;;;;;;;;;;;;;;;30.06;45.39;101127.33;128960;1082;64211;-86
2021/08/15 09:11:44;;;;;;;;;;;;;;;30.07;45.85;101114.56;128918;1084;64552;-87
2021/08/15 09:14:14;;;;;;;;;;;;;;;30.06;45.80;101108.27;128953;1082;64163;-86
2021/08/15 09:16:59;;;;;;;;;;;;;;;30.07;45.40;101109.11;128931;1084;64229;-85
2021/08/15 09:19:27;;;;;;;;;;;;;;;30.07;45.56;101103.67;128907;1083;64145;-86
2021/08/15 09:21:55;;;;;;;;;;;;;;;30.07;45.49;101100.95;128911;1083;62861;-85
2021/08/15 09:24:30;;;;;;;;;;;;;;;30.07;45.89;101101.81;128582;1084;64275;-86
2021/08/15 09:26:57;;;;;;;;;;;;;;;30.07;45.29;101096.38;128918;1084;64121;-85
2021/08/15 09:29:23;;;;;;;;;;;;;;;30.06;45.79;101091.94;128933;1084;63932;-86
2021/08/15 09:31:49;;;;;;;;;;;;;;;30.06;45.74;101091.94;128530;1084;64169;-87
2021/08/15 09:34:26;;;;;;;;;;;;;;;30.06;45.65;101082.90;128955;1084;64124;-85
2021/08/15 09:36:52;;;;;;;;;;;;;;;30.07;45.46;101082.77;128939;1084;61922;-85
2021/08/15 09:39:29;;;;;;;;;;;;;;;30.06;45.30;101080.17;128950;1083;64764;-85
2021/08/15 09:41:55;;;;;;;;;;;;;;;30.06;45.30;101080.17;128930;1084;64348;-86
2021/08/15 09:44:21;;;;;;;;;;;;;;;30.06;45.35;101075.61;128965;1084;64238;-85
2021/08/15 09:46:58;;;;;;;;;;;;;;;30.06;45.85;101069.29;128918;1084;64170;-86
2021/08/15 09:49:24;;;;;;;;;;;;;;;30.06;45.81;101072.88;128924;1084;65361;-88
2021/08/15 09:51:52;;;;;;;;;;;;;;;30.05;45.88;101063.00;128945;1084;64115;-86
2021/08/15 09:54:18;;;;;;;;;;;;;;;30.05;45.37;101064.89;128944;1084;64616;-86
2021/08/15 09:56:44;;;;;;;;;;;;;;;30.05;45.46;101052.12;128947;1084;64204;-86
2021/08/15 09:59:19;;;;;;;;;;;;;;;30.04;45.57;101055.84;128894;1084;64185;-86
2021/08/15 10:01:49;;;;;;;;;;;;;;;30.04;45.84;101052.28;128940;1084;64136;-85
2021/08/15 10:04:18;;;;;;;;;;;;;;;30.05;45.66;101054.00;128961;1084;64153;-86
2021/08/15 10:06:46;;;;;;;;;;;;;;;30.04;45.69;101050.41;128937;1083;64754;-85
2021/08/15 10:09:12;;;;;;;;;;;;;;;30.04;45.36;101044.12;128947;1082;64237;-87
2021/08/15 10:11:39;;;;;;;;;;;;;;;30.03;45.35;101040.55;128924;1084;64256;-86
2021/08/15 10:14:06;;;;;;;;;;;;;;;30.03;45.87;101037.83;128931;1083;64208;-86
2021/08/15 10:16:36;;;;;;;;;;;;;;;30.03;45.41;101026.95;128970;1084;64134;-85
2021/08/15 10:19:03;;;;;;;;;;;;;;;30.03;45.82;101029.67;128937;1084;64122;-86
2021/08/15 10:21:29;;;;;;;;;;;;;;;30.04;45.60;101025.06;128924;1082;64275;-85
2021/08/15 10:24:04;;;;;;;;;;;;;;;30.03;45.42;101018.78;128951;1084;64095;-86
2021/08/15 10:26:30;;;;;;;;;;;;;;;30.03;45.37;101023.35;128951;1084;63919;-85
2021/08/15 10:28:56;;;;;;;;;;;;;;;30.02;45.47;101017.06;128949;1082;64137;-86
2021/08/15 10:31:22;;;;;;;;;;;;;;;30.03;45.44;101016.06;128935;1084;64102;-85
2021/08/15 10:33:52;;;;;;;;;;;;;;;30.03;45.80;101009.74;128961;1082;64155;-85
2021/08/15 10:36:19;;;;;;;;;;;;;;;30.02;45.61;101006.18;128519;1084;64945;-85
2021/08/15 10:38:46;;;;;;;;;;;;;;;30.02;45.28;101006.18;128934;1084;64222;-87
2021/08/15 10:41:12;;;;;;;;;;;;;;;30.02;45.77;101000.73;128925;1084;64121;-85
2021/08/15 10:43:40;;;;;;;;;;;;;;;30.02;45.32;101005.31;128968;1082;64379;-85
2021/08/15 10:46:13;;;;;;;;;;;;;;;30.02;45.30;100997.14;128938;1084;64139;-86
2021/08/15 10:49:01;;;;;;;;;;;;;;;30.02;45.66;100998.02;128971;1084;64086;-85
2021/08/15 10:51:41;;;;;;;;;;;;;;;30.02;45.33;100986.25;128961;1083;64103;-85
2021/08/15 10:54:07;;;;;;;;;;;;;;;30.02;45.27;100987.13;129028;1082;64135;-85
2021/08/15 10:57:05;;;;;;;;;;;;;;;30.02;45.70;100989.84;128666;1084;64122;-85
2021/08/15 10:59:41;;;;;;;;;;;;;;;30.02;45.36;100981.69;128540;1086;62801;-85
2021/08/15 11:02:10;;;;;;;;;;;;;;;30.02;45.21;100976.23;128613;1085;64131;-85
2021/08/15 11:04:36;;;;;;;;;;;;;;;30.03;45.08;100975.23;128440;1087;64227;-86
2021/08/15 11:07:02;;;;;;;;;;;;;;;30.04;45.44;100968.74;128403;1086;64297;-86
2021/08/15 11:09:58;;;;;;;;;;;;;;;30.04;45.11;100963.30;128410;1085;64255;-86
2021/08/15 11:12:24;;;;;;;;;;;;;;;30.04;45.10;100974.19;127936;1087;64242;-86
2021/08/15 11:14:55;;;;;;;;;;;;;;;30.04;45.02;100967.91;127949;1087;64135;-85
2021/08/15 11:17:21;;;;;;;;;;;;;;;30.04;45.29;100965.18;127949;1086;63993;-86
2021/08/15 11:19:47;;;;;;;;;;;;;;;30.05;44.91;100964.17;127945;1087;64123;-86
2021/08/15 11:22:18;;;;;;;;;;;;;;;30.04;44.87;100965.18;127977;1086;64604;-85
2021/08/15 11:24:45;;;;;;;;;;;;;;;30.04;45.24;100962.46;127975;1087;64163;-86
2021/08/15 11:27:12;;;;;;;;;;;;;;;30.03;44.86;100955.30;127954;1087;65313;-86
2021/08/15 11:29:39;;;;;;;;;;;;;;;30.02;45.23;100957.19;127937;1087;64558;-85
2021/08/15 11:32:16;;;;;;;;;;;;;;;30.02;45.31;100954.47;127999;1087;64146;-86
2021/08/15 11:34:49;;;;;;;;;;;;;;;30.02;45.15;100949.02;127985;1086;64176;-86
2021/08/15 11:37:17;;;;;;;;;;;;;;;30.02;45.01;100953.59;128395;1087;64019;-86
2021/08/15 11:39:44;;;;;;;;;;;;;;;30.03;44.76;100952.58;128015;1087;64250;-86
2021/08/15 11:42:19;;;;;;;;;;;;;;;30.02;45.25;100950.88;128446;1086;64134;-86
2021/08/15 11:44:48;;;;;;;;;;;;;;;30.02;44.80;100943.58;128416;1087;63952;-86
2021/08/15 11:47:26;;;;;;;;;;;;;;;30.02;44.68;100951.74;128407;1087;64183;-86
2021/08/15 11:49:52;;;;;;;;;;;;;;;30.02;44.64;100937.27;128742;1084;64158;-85
2021/08/15 11:52:19;;;;;;;;;;;;;;;30.02;44.62;100934.54;128943;1083;64207;-86
2021/08/15 11:54:46;;;;;;;;;;;;;;;30.01;44.98;100933.70;128954;1084;64133;-86
2021/08/15 11:57:15;;;;;;;;;;;;;;;30.02;44.57;100929.09;128689;1084;64203;-86
2021/08/15 11:59:44;;;;;;;;;;;;;;;30.03;44.67;100928.09;128913;1084;64159;-86
2021/08/15 12:02:22;;;;;;;;;;;;;;;30.02;44.56;100920.93;128914;1084;61711;-87
2021/08/15 12:04:49;;;;;;;;;;;;;;;30.03;44.43;100922.64;128966;1083;64149;-86
2021/08/15 12:07:25;;;;;;;;;;;;;;;30.01;45.04;100913.81;128916;1084;61684;-87
2021/08/15 12:10:10;;;;;;;;;;;;;;;30.02;44.58;100915.48;128903;1084;62969;-85
2021/08/15 12:12:37;;;;;;;;;;;;;;;30.01;44.64;100911.92;128937;1084;64188;-85
2021/08/15 12:15:07;;;;;;;;;;;;;;;30.02;44.95;100915.48;128936;1084;64128;-87
2021/08/15 12:17:49;;;;;;;;;;;;;;;30.02;44.54;100907.32;128917;1084;64234;-87